createdAt,value
2023-04-11T00:00:31.708Z,22.70
2023-04-11T00:01:34.187Z,22.10
2023-04-11T00:02:36.399Z,24.30
2023-04-11T00:03:38.958Z,22.60
2023-04-11T00:04:41.627Z,25.30
2023-04-11T00:05:44.247Z,19.50
2023-04-11T00:06:47.513Z,25.10
2023-04-11T00:07:49.869Z,25.09
2023-04-11T00:08:52.794Z,22.30
2023-04-11T00:09:55.113Z,22.30
2023-04-11T00:10:58.543Z,24.80
2023-04-11T00:12:00.740Z,25.30
2023-04-11T00:13:02.913Z,24.30
2023-04-11T00:14:05.277Z,28.20
2023-04-11T00:15:07.943Z,23.30
2023-04-11T00:16:10.693Z,23.91
2023-04-11T00:17:13.073Z,23.30
2023-04-11T00:18:15.568Z,23.50
2023-04-11T00:19:17.555Z,25.60
2023-04-11T00:20:19.949Z,23.33
2023-04-11T00:21:22.450Z,23.00
2023-04-11T00:22:24.422Z,23.00
2023-04-11T00:23:26.282Z,20.67
2023-04-11T00:24:28.200Z,22.44
2023-04-11T00:25:30.398Z,26.22
2023-04-11T00:26:33.105Z,27.10
2023-04-11T00:27:35.456Z,25.60
2023-04-11T00:28:37.527Z,25.80
2023-04-11T00:29:40.316Z,23.00
2023-04-11T00:30:42.384Z,23.45
2023-04-11T00:31:44.577Z,24.60
2023-04-11T00:32:46.663Z,23.70
2023-04-11T00:33:49.229Z,27.40
2023-04-11T00:34:51.498Z,20.70
2023-04-11T00:35:53.642Z,24.10
2023-04-11T00:36:56.602Z,25.18
2023-04-11T00:37:58.769Z,25.30
2023-04-11T00:39:00.739Z,21.70
2023-04-11T00:40:07.369Z,22.60
2023-04-11T00:41:10.201Z,22.20
2023-04-11T00:42:12.209Z,24.27
2023-04-11T00:43:16.145Z,22.30
2023-04-11T00:44:18.024Z,25.11
2023-04-11T00:45:20.167Z,25.89
2023-04-11T00:46:22.642Z,23.80
2023-04-11T00:47:25.008Z,24.60
2023-04-11T00:48:27.073Z,25.50
2023-04-11T00:49:30.601Z,26.30
2023-04-11T00:50:32.814Z,21.50
2023-04-11T00:51:35.188Z,27.80
2023-04-11T00:52:37.963Z,23.60
2023-04-11T00:53:40.700Z,24.91
2023-04-11T00:54:42.863Z,27.70
2023-04-11T00:55:44.940Z,28.10
2023-04-11T00:56:47.628Z,26.20
2023-04-11T00:57:53.261Z,22.90
2023-04-11T00:58:56.459Z,24.30
2023-04-11T01:00:02.193Z,25.00
2023-04-11T01:01:05.285Z,27.00
2023-04-11T01:02:09.907Z,27.40
2023-04-11T01:03:12.490Z,25.64
2023-04-11T01:04:16.539Z,27.80
2023-04-11T01:05:19.053Z,24.90
2023-04-11T01:06:22.481Z,29.18
2023-04-11T01:07:26.306Z,26.40
2023-04-11T01:08:29.194Z,27.80
2023-04-11T01:09:33.716Z,30.40
2023-04-11T01:10:36.592Z,26.50
2023-04-11T01:11:39.262Z,24.90
2023-04-11T01:12:43.391Z,23.90
2023-04-11T01:13:46.299Z,27.00
2023-04-11T01:14:48.745Z,28.60
2023-04-11T01:15:50.722Z,29.20
2023-04-11T01:16:53.078Z,29.00
2023-04-11T01:17:55.590Z,29.80
2023-04-11T01:18:58.166Z,29.45
2023-04-11T01:20:00.935Z,28.10
2023-04-11T01:21:03.239Z,28.20
2023-04-11T01:22:05.944Z,25.10
2023-04-11T01:23:09.123Z,31.50
2023-04-11T01:24:11.340Z,27.70
2023-04-11T01:25:15.064Z,27.90
2023-04-11T01:26:18.226Z,23.20
2023-04-11T01:27:20.181Z,30.70
2023-04-11T01:28:23.204Z,30.36
2023-04-11T01:29:26.935Z,26.18
2023-04-11T01:30:29.255Z,27.70
2023-04-11T01:31:31.806Z,31.70
2023-04-11T01:32:34.314Z,29.10
2023-04-11T01:33:36.668Z,32.20
2023-04-11T01:34:40.532Z,29.00
2023-04-11T01:35:43.659Z,30.80
2023-04-11T01:36:47.616Z,33.30
2023-04-11T01:37:49.961Z,26.10
2023-04-11T01:38:52.806Z,29.50
2023-04-11T01:39:54.887Z,29.60
2023-04-11T01:40:58.889Z,31.18
2023-04-11T01:42:01.528Z,32.00
2023-04-11T01:43:03.650Z,34.00
2023-04-11T01:44:05.645Z,30.44
2023-04-11T01:45:09.877Z,28.78
2023-04-11T01:46:14.662Z,30.80
2023-04-11T01:47:16.980Z,30.00
2023-04-11T01:48:20.927Z,28.10
2023-04-11T01:49:24.790Z,30.80
2023-04-11T01:50:27.763Z,30.60
2023-04-11T01:51:30.732Z,31.50
2023-04-11T01:52:34.035Z,29.00
2023-04-11T01:53:36.206Z,31.40
2023-04-11T01:54:38.613Z,28.70
2023-04-11T01:55:41.047Z,29.45
2023-04-11T01:56:43.762Z,23.50
2023-04-11T01:57:47.696Z,32.10
2023-04-11T01:58:50.216Z,30.50
2023-04-11T01:59:52.852Z,30.60
2023-04-11T02:00:54.896Z,27.50
2023-04-11T02:01:58.054Z,26.00
2023-04-11T02:03:00.743Z,32.20
2023-04-11T02:04:04.217Z,31.80
2023-04-11T02:05:08.193Z,32.20
2023-04-11T02:06:10.860Z,28.50
2023-04-11T02:07:12.799Z,29.00
2023-04-11T02:08:15.153Z,33.30
2023-04-11T02:09:17.159Z,31.90
2023-04-11T02:10:19.671Z,29.00
2023-04-11T02:11:21.631Z,31.40
2023-04-11T02:12:44.192Z,29.40
2023-04-11T02:13:48.218Z,31.80
2023-04-11T02:14:50.112Z,30.60
2023-04-11T02:15:52.321Z,33.40
2023-04-11T02:16:55.562Z,31.00
2023-04-11T02:17:58.398Z,33.70
2023-04-11T02:19:00.455Z,32.20
2023-04-11T02:20:04.755Z,33.50
2023-04-11T02:21:07.000Z,29.00
2023-04-11T02:22:09.431Z,29.70
2023-04-11T02:23:11.269Z,32.20
2023-04-11T02:24:14.879Z,30.10
2023-04-11T02:25:17.068Z,31.60
2023-04-11T02:26:19.139Z,31.00
2023-04-11T02:27:21.466Z,31.56
2023-04-11T02:28:23.568Z,29.00
2023-04-11T02:29:28.194Z,28.30
2023-04-11T02:30:30.321Z,34.36
2023-04-11T02:31:32.809Z,32.90
2023-04-11T02:32:35.905Z,29.90
2023-04-11T02:33:37.841Z,28.80
2023-04-11T02:34:40.642Z,29.30
2023-04-11T02:35:42.804Z,27.80
2023-04-11T02:36:44.846Z,29.60
2023-04-11T02:37:47.110Z,31.78
2023-04-11T02:38:49.056Z,30.20
2023-04-11T02:39:51.045Z,29.00
2023-04-11T02:40:53.117Z,32.20
2023-04-11T02:41:55.008Z,30.89
2023-04-11T02:42:57.032Z,34.56
2023-04-11T02:43:59.373Z,29.50
2023-04-11T02:45:02.107Z,31.10
2023-04-11T02:46:12.600Z,33.10
2023-04-11T02:47:08.684Z,32.70
2023-04-11T02:48:11.322Z,32.80
2023-04-11T02:49:15.746Z,29.40
2023-04-11T02:50:20.156Z,33.90
2023-04-11T02:51:24.181Z,30.80
2023-04-11T02:52:26.997Z,29.18
2023-04-11T02:53:29.176Z,29.70
2023-04-11T02:54:32.202Z,31.20
2023-04-11T02:55:35.402Z,28.90
2023-04-11T02:56:38.066Z,28.00
2023-04-11T02:57:40.180Z,30.70
2023-04-11T02:58:45.028Z,33.00
2023-04-11T02:59:47.962Z,29.40
2023-04-11T03:00:54.153Z,30.20
2023-04-11T03:03:08.425Z,35.60
2023-04-11T03:04:12.771Z,30.40
2023-04-11T03:05:21.024Z,29.60
2023-04-11T03:06:24.584Z,27.50
2023-04-11T03:07:30.092Z,29.70
2023-04-11T03:08:33.389Z,33.40
2023-04-11T03:09:37.082Z,30.20
2023-04-11T03:10:40.493Z,30.20
2023-04-11T03:11:46.911Z,30.10
2023-04-11T03:12:49.489Z,33.90
2023-04-11T03:13:51.455Z,33.50
2023-04-11T03:14:53.314Z,34.11
2023-04-11T03:15:55.955Z,30.90
2023-04-11T03:17:00.008Z,29.70
2023-04-11T03:18:03.299Z,33.10
2023-04-11T03:19:05.432Z,32.00
2023-04-11T03:20:08.884Z,27.82
2023-04-11T03:21:10.974Z,28.20
2023-04-11T03:22:15.111Z,28.80
2023-04-11T03:23:20.370Z,33.10
2023-04-11T03:24:22.784Z,28.00
2023-04-11T03:25:26.113Z,30.20
2023-04-11T03:26:28.887Z,32.20
2023-04-11T03:27:32.865Z,31.40
2023-04-11T03:28:36.766Z,31.10
2023-04-11T03:29:39.166Z,33.40
2023-04-11T03:30:46.026Z,31.10
2023-04-11T03:31:50.524Z,30.70
2023-04-11T03:32:53.657Z,33.10
2023-04-11T03:33:55.850Z,31.20
2023-04-11T03:34:59.993Z,32.55
2023-04-11T03:36:02.301Z,32.60
2023-04-11T03:37:04.620Z,32.70
2023-04-11T03:38:07.616Z,31.80
2023-04-11T03:39:09.632Z,27.50
2023-04-11T03:40:12.949Z,32.20
2023-04-11T03:41:16.907Z,30.10
2023-04-11T03:42:20.506Z,29.70
2023-04-11T03:43:24.172Z,31.50
2023-04-11T03:44:27.092Z,27.73
2023-04-11T03:45:29.541Z,34.00
2023-04-11T03:46:33.215Z,30.10
2023-04-11T03:47:38.358Z,31.50
2023-04-11T03:48:42.632Z,33.90
2023-04-11T03:49:45.077Z,34.70
2023-04-11T03:50:48.091Z,31.10
2023-04-11T03:51:52.151Z,31.80
2023-04-11T03:52:54.218Z,31.30
2023-04-11T03:53:56.629Z,30.00
2023-04-11T03:55:01.803Z,31.60
2023-04-11T03:56:04.428Z,31.70
2023-04-11T03:57:08.432Z,33.70
2023-04-11T03:58:11.733Z,34.20
2023-04-11T03:59:15.444Z,34.10
2023-04-11T04:00:19.845Z,30.90
2023-04-11T04:01:23.904Z,33.10
2023-04-11T04:02:27.037Z,34.60
2023-04-11T04:03:29.889Z,32.00
2023-04-11T04:04:33.481Z,33.60
2023-04-11T04:05:40.755Z,31.20
2023-04-11T04:06:44.063Z,33.30
2023-04-11T04:07:46.724Z,34.60
2023-04-11T04:08:56.967Z,31.20
2023-04-11T04:10:00.179Z,32.70
2023-04-11T04:11:03.136Z,34.60
2023-04-11T04:12:07.065Z,30.60
2023-04-11T04:13:11.057Z,32.70
2023-04-11T04:14:15.078Z,32.10
2023-04-11T04:15:17.597Z,34.50
2023-04-11T04:16:21.775Z,35.10
2023-04-11T04:17:27.081Z,34.70
2023-04-11T04:18:29.699Z,30.60
2023-04-11T04:19:31.757Z,31.10
2023-04-11T04:20:34.248Z,31.30
2023-04-11T04:21:36.078Z,31.56
2023-04-11T04:22:38.187Z,32.00
2023-04-11T04:23:40.843Z,29.90
2023-04-11T04:24:57.081Z,29.80
2023-04-11T04:26:01.537Z,32.00
2023-04-11T04:27:05.239Z,29.90
2023-04-11T04:28:18.458Z,32.60
2023-04-11T04:29:20.722Z,30.60
2023-04-11T04:30:25.003Z,28.20
2023-04-11T04:31:29.758Z,28.50
2023-04-11T04:32:35.257Z,29.80
2023-04-11T04:33:39.738Z,30.40
2023-04-11T04:34:44.481Z,32.20
2023-04-11T04:35:46.898Z,34.00
2023-04-11T04:36:49.494Z,31.45
2023-04-11T04:37:58.154Z,28.10
2023-04-11T04:39:02.564Z,26.30
2023-04-11T04:40:07.541Z,27.70
2023-04-11T04:41:11.479Z,28.90
2023-04-11T04:42:14.606Z,29.30
2023-04-11T04:43:20.295Z,27.55
2023-04-11T04:44:24.341Z,22.20
2023-04-11T04:45:29.075Z,31.00
2023-04-11T04:46:33.190Z,22.30
2023-04-11T04:47:36.780Z,26.80
2023-04-11T04:48:39.086Z,27.00
2023-04-11T04:49:42.744Z,30.20
2023-04-11T04:50:45.134Z,27.80
2023-04-11T04:51:47.615Z,29.20
2023-04-11T04:52:50.813Z,25.55
2023-04-11T04:53:54.391Z,21.90
2023-04-11T04:54:58.049Z,32.91
2023-04-11T04:56:00.983Z,29.90
2023-04-11T04:57:04.281Z,29.90
2023-04-11T04:58:07.635Z,30.50
2023-04-11T04:59:10.371Z,28.00
2023-04-11T05:00:13.502Z,31.27
2023-04-11T05:01:17.779Z,29.20
2023-04-11T05:02:20.742Z,30.50
2023-04-11T05:03:23.922Z,27.50
2023-04-11T05:04:26.879Z,27.55
2023-04-11T05:05:33.533Z,26.60
2023-04-11T05:06:36.407Z,27.20
2023-04-11T05:07:38.927Z,27.40
2023-04-11T05:08:40.932Z,25.30
2023-04-11T05:09:45.049Z,26.20
2023-04-11T05:10:49.642Z,28.90
2023-04-11T05:11:52.546Z,27.60
2023-04-11T05:12:56.402Z,27.30
2023-04-11T05:13:58.693Z,24.45
2023-04-11T05:15:15.014Z,25.40
2023-04-11T05:16:18.738Z,23.90
2023-04-11T05:17:22.737Z,26.00
2023-04-11T05:18:25.761Z,23.70
2023-04-11T05:19:27.828Z,25.00
2023-04-11T05:20:30.041Z,25.80
2023-04-11T05:21:33.501Z,24.20
2023-04-11T05:22:36.330Z,26.40
2023-04-11T05:23:38.634Z,24.80
2023-04-11T05:24:40.784Z,25.80
2023-04-11T05:25:45.107Z,24.30
2023-04-11T05:26:48.463Z,26.70
2023-04-11T05:27:52.347Z,24.50
2023-04-11T05:28:56.549Z,26.40
2023-04-11T05:29:58.905Z,23.90
2023-04-11T05:31:02.370Z,22.30
2023-04-11T05:32:05.412Z,24.70
2023-04-11T05:33:08.749Z,18.20
2023-04-11T05:34:11.803Z,27.20
2023-04-11T05:35:14.164Z,24.36
2023-04-11T05:36:25.065Z,21.10
2023-04-11T05:37:27.169Z,23.70
2023-04-11T05:38:29.333Z,25.30
2023-04-11T05:39:31.384Z,24.30
2023-04-11T05:40:33.526Z,24.50
2023-04-11T05:41:35.530Z,22.00
2023-04-11T05:42:39.025Z,22.40
2023-04-11T05:43:41.022Z,21.78
2023-04-11T05:44:44.787Z,21.30
2023-04-11T05:45:47.135Z,22.90
2023-04-11T05:46:51.718Z,23.50
2023-04-11T05:47:53.928Z,21.70
2023-04-11T05:48:56.021Z,20.60
2023-04-11T05:49:58.777Z,21.56
2023-04-11T05:51:14.851Z,26.09
2023-04-11T05:52:16.880Z,23.40
2023-04-11T05:53:19.620Z,24.60
2023-04-11T05:55:44.360Z,23.00
2023-04-11T05:56:46.493Z,24.10
2023-04-11T05:57:48.727Z,20.40
2023-04-11T05:58:50.618Z,22.56
2023-04-11T05:59:53.176Z,20.89
2023-04-11T06:00:57.723Z,21.40
2023-04-11T06:02:00.086Z,21.20
2023-04-11T06:03:03.555Z,20.82
2023-04-11T06:04:05.984Z,22.30
2023-04-11T06:05:11.254Z,20.30
2023-04-11T06:06:14.105Z,19.70
2023-04-11T06:07:16.261Z,17.10
2023-04-11T06:08:18.587Z,19.20
2023-04-11T06:09:21.197Z,20.00
2023-04-11T06:10:23.861Z,18.80
2023-04-11T06:11:25.820Z,21.30
2023-04-11T06:12:27.873Z,18.20
2023-04-11T06:13:29.930Z,16.10
2023-04-11T06:14:32.293Z,17.70
2023-04-11T06:15:34.914Z,18.20
2023-04-11T06:16:38.554Z,18.20
2023-04-11T06:17:40.619Z,17.64
2023-04-11T06:18:42.656Z,17.20
2023-04-11T06:19:44.674Z,20.44
2023-04-11T06:20:47.083Z,16.70
2023-04-11T06:21:49.667Z,17.50
2023-04-11T06:22:51.768Z,17.20
2023-04-11T06:23:54.248Z,17.60
2023-04-11T06:24:56.820Z,17.73
2023-04-11T06:25:59.396Z,17.10
2023-04-11T06:27:01.974Z,18.40
2023-04-11T06:28:04.319Z,19.10
2023-04-11T06:29:07.215Z,17.60
2023-04-11T06:30:10.587Z,19.60
2023-04-11T06:31:12.661Z,16.70
2023-04-11T06:32:14.700Z,16.60
2023-04-11T06:33:16.798Z,16.10
2023-04-11T06:34:18.906Z,17.30
2023-04-11T06:35:21.121Z,13.60
2023-04-11T06:36:23.177Z,16.50
2023-04-11T06:37:25.144Z,13.10
2023-04-11T06:38:28.266Z,13.22
2023-04-11T06:39:30.326Z,14.90
2023-04-11T06:40:32.539Z,16.00
2023-04-11T06:41:34.743Z,17.40
2023-04-11T06:42:37.218Z,17.10
2023-04-11T06:43:39.206Z,14.00
2023-04-11T06:44:41.243Z,15.89
2023-04-11T06:45:43.802Z,17.70
2023-04-11T06:46:47.305Z,15.80
2023-04-11T06:47:49.580Z,17.80
2023-04-11T06:48:52.444Z,16.30
2023-04-11T06:49:55.642Z,17.60
2023-04-11T06:50:58.460Z,15.10
2023-04-11T06:52:01.148Z,17.50
2023-04-11T06:53:05.306Z,15.45
2023-04-11T06:54:11.284Z,18.30
2023-04-11T06:55:13.777Z,16.20
2023-04-11T06:56:16.972Z,12.00
2023-04-11T06:57:20.566Z,14.90
2023-04-11T06:58:23.184Z,18.90
2023-04-11T06:59:25.025Z,15.80
2023-04-11T07:00:27.566Z,13.20
2023-04-11T07:01:30.019Z,14.90
2023-04-11T07:02:34.441Z,15.90
2023-04-11T07:03:38.597Z,15.40
2023-04-11T07:04:43.647Z,14.50
2023-04-11T07:05:47.859Z,14.70
2023-04-11T07:06:53.540Z,14.10
2023-04-11T07:07:57.688Z,14.40
2023-04-11T07:09:00.755Z,16.00
2023-04-11T07:10:05.796Z,12.00
2023-04-11T07:11:09.612Z,15.80
2023-04-11T07:12:13.831Z,16.10
2023-04-11T07:13:17.852Z,15.50
2023-04-11T07:14:20.142Z,15.50
2023-04-11T07:15:23.553Z,15.00
2023-04-11T07:16:27.886Z,16.80
2023-04-11T07:17:30.616Z,16.10
2023-04-11T07:18:33.215Z,16.40
2023-04-11T07:19:35.613Z,14.80
2023-04-11T07:20:37.672Z,14.70
2023-04-11T07:21:40.475Z,14.30
2023-04-11T07:22:42.502Z,16.00
2023-04-11T07:23:48.013Z,14.50
2023-04-11T07:24:52.510Z,15.90
2023-04-11T07:25:56.350Z,16.60
2023-04-11T07:27:02.134Z,13.50
2023-04-11T07:28:05.816Z,13.70
2023-04-11T07:29:11.003Z,15.10
2023-04-11T07:30:15.253Z,14.20
2023-04-11T07:31:18.016Z,1.36
2023-04-11T07:32:25.682Z,13.55
2023-04-11T07:33:28.881Z,13.50
2023-04-11T07:34:31.412Z,15.80
2023-04-11T07:35:35.938Z,13.70
2023-04-11T07:36:39.693Z,15.80
2023-04-11T07:37:42.025Z,13.80
2023-04-11T07:38:43.893Z,14.20
2023-04-11T07:39:45.738Z,13.33
2023-04-11T07:40:47.866Z,12.20
2023-04-11T07:41:49.878Z,11.89
2023-04-11T07:42:52.183Z,12.78
2023-04-11T07:43:55.612Z,13.90
2023-04-11T07:44:57.854Z,12.20
2023-04-11T07:45:59.952Z,12.44
2023-04-11T07:47:05.318Z,11.70
2023-04-11T07:48:08.089Z,12.70
2023-04-11T07:49:09.913Z,12.89
2023-04-11T07:50:13.367Z,11.90
2023-04-11T07:51:15.958Z,11.80
2023-04-11T07:52:18.003Z,12.90
2023-04-11T07:53:21.159Z,12.60
2023-04-11T07:54:23.493Z,12.70
2023-04-11T07:55:25.912Z,10.90
2023-04-11T07:56:27.963Z,11.50
2023-04-11T07:57:30.774Z,11.20
2023-04-11T07:58:33.229Z,14.10
2023-04-11T07:59:35.219Z,13.20
2023-04-11T08:00:37.668Z,12.00
2023-04-11T08:01:39.782Z,11.30
2023-04-11T08:02:45.187Z,12.60
2023-04-11T08:03:48.385Z,11.60
2023-04-11T08:04:51.148Z,10.20
2023-04-11T08:05:53.754Z,13.60
2023-04-11T08:06:55.714Z,12.10
2023-04-11T08:07:57.627Z,12.11
2023-04-11T08:08:59.531Z,11.33
2023-04-11T08:10:01.945Z,10.78
2023-04-11T08:11:04.717Z,10.90
2023-04-11T08:12:06.792Z,10.60
2023-04-11T08:13:09.443Z,11.00
2023-04-11T08:14:11.805Z,10.00
2023-04-11T08:15:14.519Z,10.80
2023-04-11T08:16:16.750Z,9.82
2023-04-11T08:17:27.655Z,9.70
2023-04-11T08:18:23.233Z,10.10
2023-04-11T08:19:25.148Z,11.60
2023-04-11T08:20:41.140Z,11.50
2023-04-11T08:22:52.736Z,10.90
2023-04-11T08:23:54.721Z,10.11
2023-04-11T08:24:57.753Z,11.40
2023-04-11T08:26:00.333Z,9.50
2023-04-11T08:27:03.092Z,9.00
2023-04-11T08:29:18.092Z,11.70
2023-04-11T08:30:21.022Z,10.90
2023-04-11T08:31:23.205Z,10.40
2023-04-11T08:32:26.126Z,10.70
2023-04-11T08:33:28.611Z,12.82
2023-04-11T08:34:33.575Z,11.50
2023-04-11T08:35:35.626Z,13.40
2023-04-11T08:36:38.174Z,10.40
2023-04-11T08:37:40.432Z,9.70
2023-04-11T08:38:43.206Z,12.30
2023-04-11T08:39:45.702Z,12.10
2023-04-11T08:40:47.751Z,12.40
2023-04-11T08:41:50.662Z,12.33
2023-04-11T08:43:00.451Z,10.40
2023-04-11T08:44:02.871Z,6.50
2023-04-11T08:45:13.028Z,9.40
2023-04-11T08:46:18.765Z,10.70
2023-04-11T08:47:22.812Z,11.00
2023-04-11T08:48:24.804Z,10.50
2023-04-11T08:49:30.636Z,10.30
2023-04-11T08:51:46.867Z,10.40
2023-04-11T08:52:49.157Z,12.00
2023-04-11T08:53:55.654Z,10.40
2023-04-11T08:54:58.258Z,11.10
2023-04-11T08:56:00.240Z,9.20
2023-04-11T08:57:03.567Z,12.00
2023-04-11T08:58:06.317Z,9.30
2023-04-11T08:59:12.396Z,8.91
2023-04-11T09:00:19.137Z,9.60
2023-04-11T09:01:30.428Z,12.10
2023-04-11T09:02:34.168Z,9.20
2023-04-11T09:03:53.830Z,5.00
2023-04-11T09:05:00.637Z,9.70
2023-04-11T09:06:06.940Z,9.50
2023-04-11T09:07:13.514Z,10.50
2023-04-11T09:08:16.399Z,9.10
2023-04-11T09:09:28.884Z,10.27
2023-04-11T09:10:31.579Z,10.60
2023-04-11T09:13:20.308Z,10.50
2023-04-11T09:14:28.153Z,8.50
2023-04-11T09:15:30.566Z,9.90
2023-04-11T09:16:37.728Z,9.60
2023-04-11T09:17:43.897Z,8.90
2023-04-11T09:18:46.902Z,9.00
2023-04-11T09:19:50.563Z,10.40
2023-04-11T09:20:58.749Z,10.00
2023-04-11T09:22:04.259Z,7.50
2023-04-11T09:23:06.353Z,7.70
2023-04-11T09:24:16.908Z,8.40
2023-04-11T09:25:23.701Z,8.00
2023-04-11T09:26:28.594Z,8.10
2023-04-11T09:27:31.697Z,9.40
2023-04-11T09:28:46.536Z,7.80
2023-04-11T09:29:48.653Z,9.10
2023-04-11T09:30:55.592Z,8.40
2023-04-11T09:31:58.696Z,8.70
2023-04-11T09:34:28.151Z,8.70
2023-04-11T09:35:30.619Z,8.50
2023-04-11T09:36:34.306Z,8.40
2023-04-11T09:39:22.336Z,9.40
2023-04-11T09:40:26.640Z,9.90
2023-04-11T09:41:35.954Z,10.40
2023-04-11T09:42:42.905Z,8.40
2023-04-11T09:43:54.139Z,8.20
2023-04-11T09:44:57.310Z,7.60
2023-04-11T09:46:10.893Z,9.90
2023-04-11T09:47:13.070Z,7.60
2023-04-11T09:48:15.617Z,7.80
2023-04-11T09:50:28.693Z,8.10
2023-04-11T09:51:37.017Z,8.70
2023-04-11T09:52:45.354Z,8.10
2023-04-11T09:53:50.531Z,8.20
2023-04-11T09:54:54.050Z,8.30
2023-04-11T09:55:56.665Z,7.30
2023-04-11T09:57:02.618Z,7.40
2023-04-11T09:58:05.423Z,7.70
2023-04-11T09:59:07.673Z,9.09
2023-04-11T10:01:23.886Z,8.20
2023-04-11T10:02:27.449Z,7.90
2023-04-11T10:03:31.178Z,8.20
2023-04-11T10:04:33.808Z,7.20
2023-04-11T10:05:41.406Z,8.50
2023-04-11T10:07:08.858Z,9.00
2023-04-11T10:08:31.938Z,8.80
2023-04-11T10:13:27.708Z,9.09
2023-04-11T10:14:41.842Z,9.60
2023-04-11T10:17:20.753Z,12.00
2023-04-11T10:18:20.824Z,11.20
2023-04-11T10:19:23.649Z,8.00
2023-04-11T10:22:02.052Z,10.60
2023-04-11T10:23:06.678Z,10.10
2023-04-11T10:24:13.482Z,9.30
2023-04-11T10:25:20.867Z,9.10
2023-04-11T10:26:26.800Z,9.80
2023-04-11T10:29:39.234Z,8.90
2023-04-11T10:30:47.641Z,8.70
2023-04-11T10:32:11.250Z,7.60
2023-04-11T10:33:19.708Z,7.60
2023-04-11T10:34:26.464Z,9.60
2023-04-11T10:35:29.768Z,8.50
2023-04-11T10:36:53.262Z,6.70
2023-04-11T10:37:55.578Z,7.40
2023-04-11T10:38:59.487Z,6.60
2023-04-11T10:40:04.660Z,6.60
2023-04-11T10:41:26.688Z,7.60
2023-04-11T10:42:43.146Z,6.80
2023-04-11T10:43:46.812Z,7.10
2023-04-11T10:45:10.896Z,5.90
2023-04-11T10:46:26.316Z,7.20
2023-04-11T10:47:31.782Z,7.40
2023-04-11T10:49:50.766Z,7.50
2023-04-11T10:50:55.621Z,9.91
2023-04-11T10:52:19.346Z,7.60
2023-04-11T10:53:38.571Z,7.60
2023-04-11T10:54:41.660Z,6.90
2023-04-11T10:55:54.357Z,7.90
2023-04-11T10:56:56.896Z,6.80
2023-04-11T10:58:21.836Z,5.70
2023-04-11T11:02:29.013Z,8.10
2023-04-11T11:03:32.631Z,8.20
2023-04-11T11:04:37.431Z,7.20
2023-04-11T11:05:46.447Z,8.00
2023-04-11T11:06:56.964Z,6.70
2023-04-11T11:07:55.811Z,7.60
2023-04-11T11:08:57.997Z,7.70
2023-04-11T11:10:02.368Z,3.80
2023-04-11T11:11:07.847Z,9.20
2023-04-11T11:12:17.307Z,7.40
2023-04-11T11:13:20.913Z,8.30
2023-04-11T11:14:38.769Z,8.80
2023-04-11T11:15:53.745Z,7.20
2023-04-11T11:16:57.809Z,8.30
2023-04-11T11:18:00.209Z,7.70
2023-04-11T11:19:04.734Z,8.70
2023-04-11T11:20:18.230Z,6.20
2023-04-11T11:22:28.634Z,7.00
2023-04-11T11:23:31.870Z,8.00
2023-04-11T11:24:37.092Z,8.20
2023-04-11T11:25:39.299Z,6.70
2023-04-11T11:26:43.250Z,7.90
2023-04-11T11:27:45.544Z,8.30
2023-04-11T11:28:50.273Z,9.20
2023-04-11T11:32:37.746Z,8.40
2023-04-11T11:34:43.682Z,8.30
2023-04-11T11:37:06.264Z,8.00
2023-04-11T11:39:21.295Z,7.60
2023-04-11T11:40:24.468Z,11.00
2023-04-11T11:41:27.595Z,8.80
2023-04-11T11:42:29.937Z,9.10
2023-04-11T11:43:36.021Z,9.90
2023-04-11T11:44:39.178Z,9.10
2023-04-11T11:45:42.609Z,8.60
2023-04-11T11:47:02.818Z,7.50
2023-04-11T11:49:51.742Z,9.40
2023-04-11T11:50:55.931Z,8.90
2023-04-11T11:51:58.133Z,7.10
2023-04-11T11:53:16.786Z,8.70
2023-04-11T11:54:18.986Z,6.90
2023-04-11T11:57:54.808Z,8.90
2023-04-11T11:58:57.202Z,8.20
2023-04-11T12:00:02.562Z,7.50
2023-04-11T12:02:16.565Z,8.00
2023-04-11T12:03:25.227Z,7.00
2023-04-11T12:04:27.547Z,7.00
2023-04-11T12:05:32.574Z,7.20
2023-04-11T12:06:35.249Z,8.40
2023-04-11T12:07:38.364Z,9.40
2023-04-11T12:08:40.969Z,5.70
2023-04-11T12:09:47.221Z,7.80
2023-04-11T12:10:51.382Z,6.70
2023-04-11T12:11:56.113Z,7.40
2023-04-11T12:12:58.387Z,6.60
2023-04-11T12:14:00.525Z,6.90
2023-04-11T12:15:11.503Z,5.60
2023-04-11T12:16:16.144Z,8.80
2023-04-11T12:17:18.478Z,7.20
2023-04-11T12:18:25.453Z,6.90
2023-04-11T12:19:33.138Z,7.80
2023-04-11T12:20:35.598Z,9.60
2023-04-11T12:21:37.897Z,7.50
2023-04-11T12:22:52.143Z,7.80
2023-04-11T12:23:57.994Z,8.10
2023-04-11T12:26:24.932Z,9.50
2023-04-11T12:27:29.946Z,8.70
2023-04-11T12:28:32.059Z,9.55
2023-04-11T12:29:34.024Z,9.60
2023-04-11T12:30:36.752Z,9.60
2023-04-11T12:31:45.340Z,8.70
2023-04-11T12:32:50.169Z,8.80
2023-04-11T12:33:52.786Z,9.10
2023-04-11T12:34:55.449Z,8.60
2023-04-11T12:35:57.625Z,8.20
2023-04-11T12:37:03.469Z,7.60
2023-04-11T12:38:05.461Z,6.70
2023-04-11T12:39:07.762Z,9.80
2023-04-11T12:40:11.318Z,9.09
2023-04-11T12:41:30.147Z,9.00
2023-04-11T12:42:20.953Z,9.50
2023-04-11T12:43:21.731Z,9.20
2023-04-11T12:44:23.965Z,8.30
2023-04-11T12:45:27.889Z,9.20
2023-04-11T12:46:31.164Z,8.90
2023-04-11T12:47:34.266Z,10.30
2023-04-11T12:48:36.396Z,8.90
2023-04-11T12:49:39.741Z,9.60
2023-04-11T12:50:44.367Z,9.10
2023-04-11T12:51:47.114Z,9.20
2023-04-11T12:52:50.394Z,9.00
2023-04-11T12:53:52.506Z,8.00
2023-04-11T12:54:55.092Z,7.90
2023-04-11T12:55:57.364Z,8.40
2023-04-11T12:57:05.618Z,9.00
2023-04-11T12:58:09.235Z,8.20
2023-04-11T13:08:45.612Z,8.30
2023-04-11T13:10:58.042Z,10.00
2023-04-11T13:16:11.395Z,8.20
2023-04-11T13:17:20.368Z,9.40
2023-04-11T13:18:22.407Z,7.20
2023-04-11T13:19:26.158Z,9.90
2023-04-11T13:21:47.893Z,8.90
2023-04-11T13:24:08.132Z,10.80
2023-04-11T13:25:10.628Z,8.30
2023-04-11T13:26:15.277Z,7.90
2023-04-11T13:27:17.376Z,9.10
2023-04-11T13:28:20.533Z,8.80
2023-04-11T13:29:22.653Z,9.80
2023-04-11T13:30:24.817Z,10.40
2023-04-11T13:31:27.618Z,8.90
2023-04-11T13:32:29.983Z,9.36
2023-04-11T13:33:40.169Z,8.10
2023-04-11T13:34:45.627Z,8.40
2023-04-11T13:35:47.695Z,8.70
2023-04-11T13:37:03.665Z,8.60
2023-04-11T13:38:08.645Z,8.80
2023-04-11T13:39:10.790Z,9.70
2023-04-11T13:40:13.845Z,12.09
2023-04-11T13:41:18.373Z,10.60
2023-04-11T13:42:20.460Z,8.80
2023-04-11T13:43:25.713Z,9.80
2023-04-11T13:44:27.843Z,9.00
2023-04-11T13:45:34.101Z,11.90
2023-04-11T13:46:36.505Z,14.00
2023-04-11T13:47:40.027Z,13.70
2023-04-11T13:48:43.460Z,13.00
2023-04-11T13:49:45.651Z,10.50
2023-04-11T13:50:48.027Z,10.50
2023-04-11T13:51:55.152Z,9.10
2023-04-11T13:52:58.237Z,9.10
2023-04-11T13:54:02.239Z,8.80
2023-04-11T13:55:05.779Z,8.50
2023-04-11T13:56:09.748Z,8.10
2023-04-11T13:57:11.872Z,9.50
2023-04-11T13:58:14.762Z,9.70
2023-04-11T13:59:17.549Z,8.60
2023-04-11T14:00:21.982Z,9.50
2023-04-11T14:01:24.383Z,8.90
2023-04-11T14:02:27.695Z,9.70
2023-04-11T14:03:30.097Z,10.20
2023-04-11T14:04:35.911Z,8.10
2023-04-11T14:05:38.736Z,9.40
2023-04-11T14:06:41.133Z,8.30
2023-04-11T14:07:46.747Z,9.20
2023-04-11T14:09:00.318Z,8.80
2023-04-11T14:10:06.245Z,8.10
2023-04-11T14:12:32.851Z,8.50
2023-04-11T14:13:35.917Z,7.70
2023-04-11T14:14:38.230Z,8.56
2023-04-11T14:15:40.284Z,10.10
2023-04-11T14:16:42.390Z,7.70
2023-04-11T14:18:57.228Z,8.10
2023-04-11T14:19:59.434Z,8.40
2023-04-11T14:21:04.960Z,8.90
2023-04-11T14:22:07.052Z,8.20
2023-04-11T14:23:08.967Z,8.44
2023-04-11T14:24:15.808Z,9.60
2023-04-11T14:25:20.566Z,9.80
2023-04-11T14:26:23.666Z,9.50
2023-04-11T14:27:25.834Z,9.80
2023-04-11T14:28:28.498Z,10.89
2023-04-11T14:29:31.927Z,10.50
2023-04-11T14:30:36.261Z,9.10
2023-04-11T14:31:40.302Z,10.70
2023-04-11T14:32:43.331Z,10.70
2023-04-11T14:33:48.470Z,8.00
2023-04-11T14:34:54.661Z,10.70
2023-04-11T14:35:59.998Z,11.80
2023-04-11T14:38:15.945Z,10.50
2023-04-11T14:39:23.607Z,8.80
2023-04-11T14:40:28.170Z,7.90
2023-04-11T14:41:30.267Z,9.90
2023-04-11T14:42:38.811Z,11.00
2023-04-11T14:43:43.631Z,8.40
2023-04-11T14:44:45.747Z,8.00
2023-04-11T14:45:49.952Z,11.40
2023-04-11T14:46:54.139Z,9.00
2023-04-11T14:47:59.993Z,9.10
2023-04-11T14:49:08.759Z,9.60
2023-04-11T14:50:14.223Z,9.90
2023-04-11T14:51:16.339Z,8.80
2023-04-11T14:52:18.390Z,9.50
2023-04-11T14:53:24.010Z,8.90
2023-04-11T14:54:27.919Z,12.10
2023-04-11T14:55:32.567Z,9.30